Springfield, Oregon
Current Conditions -  °F | °C
As of 9:54 AM on Tuesday 21 Oct 2014 (Local Time) from KEUG Reporting Station
Broken Clouds Broken Clouds  
Wind Chill: 55°   Ceiling: 5500
Heat Index: 55°   Visibility: 10mi
Dew Point: 48°   Wind: 12mph
Humidity: 77%   Direction: 170°S
Pressure: 30.04"   Gusts: NA
Location:  44.05°N, 123.01°W
Report Text: KEUG 211654Z 17010KT 10SM SCT040 BKN055 BKN100 13/09 A3004 RMK AO2 SLP172 T01280089
Loading
Personal Weather Stations






























Interactive Weather Map
Tropical Storm Tracking
New forecast layout! Learn more

10-Day Weather Forecast

Advertisements
Track Severe Weather on mobile